sensor_id;sensor_type;location;lat;lon;timestamp;pressure;altitude;pressure_sealevel;temperature
68440;BMP180;55421;51.600;5.718;2022-07-29T00:02:18;28022.20;;;18.80
68440;BMP180;55421;51.600;5.718;2022-07-29T00:04:45;30573.60;;;18.80
68440;BMP180;55421;51.600;5.718;2022-07-29T00:07:11;30438.00;;;18.80
68440;BMP180;55421;51.600;5.718;2022-07-29T00:09:37;31342.20;;;18.80
68440;BMP180;55421;51.600;5.718;2022-07-29T00:12:04;28590.40;;;18.70
68440;BMP180;55421;51.600;5.718;2022-07-29T00:14:31;30404.00;;;18.70
68440;BMP180;55421;51.600;5.718;2022-07-29T00:16:57;28391.80;;;18.70
68440;BMP180;55421;51.600;5.718;2022-07-29T00:19:23;30542.40;;;18.70
68440;BMP180;55421;51.600;5.718;2022-07-29T00:21:50;30588.80;;;18.70
68440;BMP180;55421;51.600;5.718;2022-07-29T00:24:16;30957.60;;;18.70
68440;BMP180;55421;51.600;5.718;2022-07-29T00:26:43;29823.80;;;18.78
68440;BMP180;55421;51.600;5.718;2022-07-29T00:29:09;28525.00;;;18.80
68440;BMP180;55421;51.600;5.718;2022-07-29T00:31:36;29584.80;;;18.80
68440;BMP180;55421;51.600;5.718;2022-07-29T00:34:02;28833.60;;;18.80
68440;BMP180;55421;51.600;5.718;2022-07-29T00:36:29;28055.20;;;18.80
68440;BMP180;55421;51.600;5.718;2022-07-29T00:38:55;31302.20;;;18.70
68440;BMP180;55421;51.600;5.718;2022-07-29T00:41:22;29273.40;;;18.70
68440;BMP180;55421;51.600;5.718;2022-07-29T00:43:48;27977.40;;;18.70
68440;BMP180;55421;51.600;5.718;2022-07-29T00:46:15;28587.20;;;18.60
68440;BMP180;55421;51.600;5.718;2022-07-29T00:48:41;27709.20;;;18.60
68440;BMP180;55421;51.600;5.718;2022-07-29T00:51:08;27249.00;;;18.50
68440;BMP180;55421;51.600;5.718;2022-07-29T00:53:36;26737.20;;;18.50
68440;BMP180;55421;51.600;5.718;2022-07-29T00:56:03;24398.60;;;18.48
68440;BMP180;55421;51.600;5.718;2022-07-29T00:58:30;26914.60;;;18.40
68440;BMP180;55421;51.600;5.718;2022-07-29T01:00:57;24810.80;;;18.40
68440;BMP180;55421;51.600;5.718;2022-07-29T01:03:24;25302.20;;;18.30
68440;BMP180;55421;51.600;5.718;2022-07-29T01:05:52;26176.00;;;18.20
68440;BMP180;55421;51.600;5.718;2022-07-29T01:08:20;26869.20;;;18.20
68440;BMP180;55421;51.600;5.718;2022-07-29T01:10:47;24881.60;;;18.10
68440;BMP180;55421;51.600;5.718;2022-07-29T01:13:15;26728.40;;;18.10
68440;BMP180;55421;51.600;5.718;2022-07-29T01:15:57;24469.60;;;18.02
68440;BMP180;55421;51.600;5.718;2022-07-29T01:18:34;28475.80;;;18.00
68440;BMP180;55421;51.600;5.718;2022-07-29T01:21:49;27286.20;;;18.00
68440;BMP180;55421;51.600;5.718;2022-07-29T01:30:15;25294.40;;;17.80
68440;BMP180;55421;51.600;5.718;2022-07-29T01:32:47;26158.00;;;17.80
68440;BMP180;55421;51.600;5.718;2022-07-29T01:35:23;26611.80;;;17.80
68440;BMP180;55421;51.600;5.718;2022-07-29T01:38:13;27473.20;;;17.90
68440;BMP180;55421;51.600;5.718;2022-07-29T01:40:54;28206.40;;;17.80
68440;BMP180;55421;51.600;5.718;2022-07-29T01:43:41;25531.60;;;17.80
68440;BMP180;55421;51.600;5.718;2022-07-29T01:46:22;26506.80;;;17.80
68440;BMP180;55421;51.600;5.718;2022-07-29T01:48:59;23495.80;;;17.82
68440;BMP180;55421;51.600;5.718;2022-07-29T01:51:36;27056.40;;;17.80
68440;BMP180;55421;51.600;5.718;2022-07-29T01:54:37;24918.00;;;17.70
68440;BMP180;55421;51.600;5.718;2022-07-29T01:57:08;25310.60;;;17.60
68440;BMP180;55421;51.600;5.718;2022-07-29T01:59:37;24045.20;;;17.50
68440;BMP180;55421;51.600;5.718;2022-07-29T02:02:06;23428.00;;;17.50
68440;BMP180;55421;51.600;5.718;2022-07-29T02:04:36;23212.60;;;17.50
68440;BMP180;55421;51.600;5.718;2022-07-29T02:07:07;21141.20;;;17.40
68440;BMP180;55421;51.600;5.718;2022-07-29T02:09:39;19555.40;;;17.36
68440;BMP180;55421;51.600;5.718;2022-07-29T02:12:07;17739.00;;;17.30
68440;BMP180;55421;51.600;5.718;2022-07-29T02:14:42;17193.80;;;17.20
68440;BMP180;55421;51.600;5.718;2022-07-29T02:17:12;15995.20;;;17.20
68440;BMP180;55421;51.600;5.718;2022-07-29T02:19:41;16541.40;;;17.10
68440;BMP180;55421;51.600;5.718;2022-07-29T02:22:10;14563.00;;;17.10
68440;BMP180;55421;51.600;5.718;2022-07-29T02:24:38;14653.00;;;17.00
68440;BMP180;55421;51.600;5.718;2022-07-29T02:27:08;16070.00;;;16.90
68440;BMP180;55421;51.600;5.718;2022-07-29T02:29:37;15922.80;;;16.82
68440;BMP180;55421;51.600;5.718;2022-07-29T02:32:10;14655.00;;;16.80
68440;BMP180;55421;51.600;5.718;2022-07-29T02:34:39;13917.00;;;16.80
68440;BMP180;55421;51.600;5.718;2022-07-29T02:37:10;12335.00;;;16.80
68440;BMP180;55421;51.600;5.718;2022-07-29T02:39:41;10899.80;;;16.80
68440;BMP180;55421;51.600;5.718;2022-07-29T02:42:13;12977.20;;;16.80
68440;BMP180;55421;51.600;5.718;2022-07-29T02:44:41;11679.40;;;16.80
68440;BMP180;55421;51.600;5.718;2022-07-29T02:47:28;11072.40;;;16.80
68440;BMP180;55421;51.600;5.718;2022-07-29T02:50:11;9847.00;;;16.80
68440;BMP180;55421;51.600;5.718;2022-07-29T02:52:47;9936.60;;;16.70
68440;BMP180;55421;51.600;5.718;2022-07-29T02:55:27;8554.40;;;16.60
68440;BMP180;55421;51.600;5.718;2022-07-29T03:01:11;5705.20;;;16.50
68440;BMP180;55421;51.600;5.718;2022-07-29T03:03:44;6229.80;;;16.50
68440;BMP180;55421;51.600;5.718;2022-07-29T03:06:14;4532.00;;;16.46
68440;BMP180;55421;51.600;5.718;2022-07-29T03:08:44;5120.60;;;16.40
68440;BMP180;55421;51.600;5.718;2022-07-29T03:11:12;6117.20;;;16.50
68440;BMP180;55421;51.600;5.718;2022-07-29T03:13:40;4725.40;;;16.50
68440;BMP180;55421;51.600;5.718;2022-07-29T03:16:08;4170.60;;;16.60
68440;BMP180;55421;51.600;5.718;2022-07-29T03:18:36;4463.40;;;16.52
68440;BMP180;55421;51.600;5.718;2022-07-29T03:21:03;2343.20;;;16.50
68440;BMP180;55421;51.600;5.718;2022-07-29T03:23:30;6236.80;;;16.50
68440;BMP180;55421;51.600;5.718;2022-07-29T03:25:57;3226.40;;;16.50
68440;BMP180;55421;51.600;5.718;2022-07-29T03:28:23;4100.40;;;16.50
68440;BMP180;55421;51.600;5.718;2022-07-29T03:30:50;51967.80;;;16.50
68440;BMP180;55421;51.600;5.718;2022-07-29T03:33:16;50674.60;;;16.60
68440;BMP180;55421;51.600;5.718;2022-07-29T03:35:42;2768.80;;;16.60
68440;BMP180;55421;51.600;5.718;2022-07-29T03:38:09;2468.60;;;16.60
68440;BMP180;55421;51.600;5.718;2022-07-29T03:40:42;2924.60;;;16.60
68440;BMP180;55421;51.600;5.718;2022-07-29T03:43:10;149086.20;;;16.60
68440;BMP180;55421;51.600;5.718;2022-07-29T03:45:41;199444.80;;;16.66
68440;BMP180;55421;51.600;5.718;2022-07-29T03:48:12;197959.41;;;16.70
68440;BMP180;55421;51.600;5.718;2022-07-29T03:50:40;198584.41;;;16.70
68440;BMP180;55421;51.600;5.718;2022-07-29T03:53:09;248454.80;;;16.70
68440;BMP180;55421;51.600;5.718;2022-07-29T03:55:41;247343.00;;;16.70
68440;BMP180;55421;51.600;5.718;2022-07-29T03:58:12;248047.59;;;16.70
68440;BMP180;55421;51.600;5.718;2022-07-29T04:00:41;248198.41;;;16.72
68440;BMP180;55421;51.600;5.718;2022-07-29T04:03:08;100052.60;;;16.80
68440;BMP180;55421;51.600;5.718;2022-07-29T04:05:35;52179.40;;;16.80
68440;BMP180;55421;51.600;5.718;2022-07-29T04:08:01;248508.80;;;16.72
68440;BMP180;55421;51.600;5.718;2022-07-29T04:10:27;149621.80;;;16.70
68440;BMP180;55421;51.600;5.718;2022-07-29T04:12:54;149307.59;;;16.70
68440;BMP180;55421;51.600;5.718;2022-07-29T04:15:20;247313.20;;;16.80
68440;BMP180;55421;51.600;5.718;2022-07-29T04:17:47;247556.59;;;16.80
68440;BMP180;55421;51.600;5.718;2022-07-29T04:20:13;245490.00;;;16.80
68440;BMP180;55421;51.600;5.718;2022-07-29T04:22:40;244832.00;;;16.70
68440;BMP180;55421;51.600;5.718;2022-07-29T04:25:07;243946.80;;;16.70
68440;BMP180;55421;51.600;5.718;2022-07-29T04:27:34;242864.00;;;16.60
68440;BMP180;55421;51.600;5.718;2022-07-29T04:30:01;241039.00;;;16.60
68440;BMP180;55421;51.600;5.718;2022-07-29T04:32:27;243273.20;;;16.60
68440;BMP180;55421;51.600;5.718;2022-07-29T04:34:54;240110.41;;;16.52
68440;BMP180;55421;51.600;5.718;2022-07-29T04:37:20;237567.80;;;16.50
68440;BMP180;55421;51.600;5.718;2022-07-29T04:39:46;236816.00;;;16.40
68440;BMP180;55421;51.600;5.718;2022-07-29T04:42:13;234958.59;;;16.50
68440;BMP180;55421;51.600;5.718;2022-07-29T04:44:39;238469.20;;;16.50
68440;BMP180;55421;51.600;5.718;2022-07-29T04:47:08;236062.59;;;16.54
68440;BMP180;55421;51.600;5.718;2022-07-29T04:49:38;234853.00;;;16.50
68440;BMP180;55421;51.600;5.718;2022-07-29T04:52:06;233569.20;;;16.50
68440;BMP180;55421;51.600;5.718;2022-07-29T04:54:32;232700.80;;;16.44
68440;BMP180;55421;51.600;5.718;2022-07-29T04:56:59;231975.00;;;16.40
68440;BMP180;55421;51.600;5.718;2022-07-29T04:59:26;229547.41;;;16.50
68440;BMP180;55421;51.600;5.718;2022-07-29T05:01:52;230832.20;;;16.50
68440;BMP180;55421;51.600;5.718;2022-07-29T05:04:19;231961.80;;;16.50
68440;BMP180;55421;51.600;5.718;2022-07-29T05:06:45;232891.80;;;16.50
68440;BMP180;55421;51.600;5.718;2022-07-29T05:09:11;233951.80;;;16.48
68440;BMP180;55421;51.600;5.718;2022-07-29T05:11:38;232979.59;;;16.40
68440;BMP180;55421;51.600;5.718;2022-07-29T05:14:04;232472.41;;;16.40
68440;BMP180;55421;51.600;5.718;2022-07-29T05:16:31;232885.00;;;16.40
68440;BMP180;55421;51.600;5.718;2022-07-29T05:18:57;232568.41;;;16.40
68440;BMP180;55421;51.600;5.718;2022-07-29T05:21:24;230951.20;;;16.40
68440;BMP180;55421;51.600;5.718;2022-07-29T05:23:50;231621.41;;;16.30
68440;BMP180;55421;51.600;5.718;2022-07-29T05:26:16;229595.20;;;16.30
68440;BMP180;55421;51.600;5.718;2022-07-29T05:28:43;228972.80;;;16.34
68440;BMP180;55421;51.600;5.718;2022-07-29T05:31:09;228251.20;;;16.40
68440;BMP180;55421;51.600;5.718;2022-07-29T05:33:36;230830.41;;;16.40
68440;BMP180;55421;51.600;5.718;2022-07-29T05:36:05;230219.20;;;16.40
68440;BMP180;55421;51.600;5.718;2022-07-29T05:38:34;233299.80;;;16.40
68440;BMP180;55421;51.600;5.718;2022-07-29T05:41:00;231777.80;;;16.40
68440;BMP180;55421;51.600;5.718;2022-07-29T05:43:28;232449.00;;;16.30
68440;BMP180;55421;51.600;5.718;2022-07-29T05:45:55;231557.41;;;16.30
68440;BMP180;55421;51.600;5.718;2022-07-29T05:48:22;228545.20;;;16.20
68440;BMP180;55421;51.600;5.718;2022-07-29T05:50:48;229263.41;;;16.20
68440;BMP180;55421;51.600;5.718;2022-07-29T05:53:15;228119.00;;;16.16
68440;BMP180;55421;51.600;5.718;2022-07-29T05:55:42;228100.20;;;16.10
68440;BMP180;55421;51.600;5.718;2022-07-29T05:58:08;228499.41;;;16.10
68440;BMP180;55421;51.600;5.718;2022-07-29T06:00:35;227236.20;;;16.14
68440;BMP180;55421;51.600;5.718;2022-07-29T06:03:01;226543.80;;;16.20
68440;BMP180;55421;51.600;5.718;2022-07-29T06:05:27;227639.41;;;16.20
68440;BMP180;55421;51.600;5.718;2022-07-29T06:07:54;225914.00;;;16.14
68440;BMP180;55421;51.600;5.718;2022-07-29T06:10:20;226116.41;;;16.10
68440;BMP180;55421;51.600;5.718;2022-07-29T06:12:47;224684.20;;;16.10
68440;BMP180;55421;51.600;5.718;2022-07-29T06:15:13;224496.20;;;16.10
68440;BMP180;55421;51.600;5.718;2022-07-29T06:17:40;224635.41;;;16.10
68440;BMP180;55421;51.600;5.718;2022-07-29T06:20:06;225038.59;;;16.16
68440;BMP180;55421;51.600;5.718;2022-07-29T06:22:33;224965.00;;;16.20
68440;BMP180;55421;51.600;5.718;2022-07-29T06:25:01;225491.59;;;16.20
68440;BMP180;55421;51.600;5.718;2022-07-29T06:27:28;227153.00;;;16.20
68440;BMP180;55421;51.600;5.718;2022-07-29T06:29:56;227101.00;;;16.30
68440;BMP180;55421;51.600;5.718;2022-07-29T06:32:23;228959.59;;;16.30
68440;BMP180;55421;51.600;5.718;2022-07-29T06:34:49;227743.80;;;16.30
68440;BMP180;55421;51.600;5.718;2022-07-29T06:37:16;227151.00;;;16.40
68440;BMP180;55421;51.600;5.718;2022-07-29T06:39:45;228646.80;;;16.40
68440;BMP180;55421;51.600;5.718;2022-07-29T06:42:12;226645.59;;;16.50
68440;BMP180;55421;51.600;5.718;2022-07-29T06:44:38;228413.80;;;16.50
68440;BMP180;55421;51.600;5.718;2022-07-29T06:47:04;230112.41;;;16.40
68440;BMP180;55421;51.600;5.718;2022-07-29T06:49:31;228460.41;;;16.40
68440;BMP180;55421;51.600;5.718;2022-07-29T06:51:57;227428.00;;;16.40
68440;BMP180;55421;51.600;5.718;2022-07-29T06:54:24;228311.00;;;16.40
68440;BMP180;55421;51.600;5.718;2022-07-29T06:56:50;228137.00;;;16.40
68440;BMP180;55421;51.600;5.718;2022-07-29T06:59:17;228241.80;;;16.40
68440;BMP180;55421;51.600;5.718;2022-07-29T07:01:43;227317.41;;;16.40
68440;BMP180;55421;51.600;5.718;2022-07-29T07:04:11;228005.41;;;16.40
68440;BMP180;55421;51.600;5.718;2022-07-29T07:06:38;226408.41;;;16.40
68440;BMP180;55421;51.600;5.718;2022-07-29T07:09:06;228277.20;;;16.40
68440;BMP180;55421;51.600;5.718;2022-07-29T07:11:33;226185.59;;;16.40
68440;BMP180;55421;51.600;5.718;2022-07-29T07:13:59;226615.20;;;16.50
68440;BMP180;55421;51.600;5.718;2022-07-29T07:16:26;227154.41;;;16.50
68440;BMP180;55421;51.600;5.718;2022-07-29T07:18:52;228292.20;;;16.52
68440;BMP180;55421;51.600;5.718;2022-07-29T07:21:19;229964.41;;;16.60
68440;BMP180;55421;51.600;5.718;2022-07-29T07:23:46;229200.59;;;16.60
68440;BMP180;55421;51.600;5.718;2022-07-29T07:26:12;231230.41;;;16.60
68440;BMP180;55421;51.600;5.718;2022-07-29T07:28:39;229138.41;;;16.60
68440;BMP180;55421;51.600;5.718;2022-07-29T07:31:05;230551.00;;;16.60
68440;BMP180;55421;51.600;5.718;2022-07-29T07:33:32;230213.59;;;16.60
68440;BMP180;55421;51.600;5.718;2022-07-29T07:35:58;232292.59;;;16.68
68440;BMP180;55421;51.600;5.718;2022-07-29T07:38:25;231137.41;;;16.70
68440;BMP180;55421;51.600;5.718;2022-07-29T07:40:51;231621.80;;;16.70
68440;BMP180;55421;51.600;5.718;2022-07-29T07:43:18;229858.00;;;16.80
68440;BMP180;55421;51.600;5.718;2022-07-29T07:45:44;230322.00;;;16.90
68440;BMP180;55421;51.600;5.718;2022-07-29T07:48:10;229782.59;;;16.92
68440;BMP180;55421;51.600;5.718;2022-07-29T07:50:37;233029.59;;;17.00
68440;BMP180;55421;51.600;5.718;2022-07-29T07:53:03;231979.41;;;17.06
68440;BMP180;55421;51.600;5.718;2022-07-29T07:55:30;236580.00;;;17.00
68440;BMP180;55421;51.600;5.718;2022-07-29T07:57:56;233353.59;;;17.00
68440;BMP180;55421;51.600;5.718;2022-07-29T08:00:23;232134.20;;;16.98
68440;BMP180;55421;51.600;5.718;2022-07-29T08:02:50;235335.41;;;17.00
68440;BMP180;55421;51.600;5.718;2022-07-29T08:05:17;234618.41;;;17.10
68440;BMP180;55421;51.600;5.718;2022-07-29T08:07:47;235678.80;;;17.20
68440;BMP180;55421;51.600;5.718;2022-07-29T08:10:15;235079.59;;;17.40
68440;BMP180;55421;51.600;5.718;2022-07-29T08:13:04;239348.41;;;17.50
68440;BMP180;55421;51.600;5.718;2022-07-29T08:15:32;237824.00;;;17.60
68440;BMP180;55421;51.600;5.718;2022-07-29T08:17:59;241035.41;;;17.70
68440;BMP180;55421;51.600;5.718;2022-07-29T08:20:25;241583.59;;;17.84
68440;BMP180;55421;51.600;5.718;2022-07-29T08:22:52;243667.20;;;18.10
68440;BMP180;55421;51.600;5.718;2022-07-29T08:25:19;245805.20;;;18.30
68440;BMP180;55421;51.600;5.718;2022-07-29T08:27:47;246522.20;;;18.50
68440;BMP180;55421;51.600;5.718;2022-07-29T08:30:14;247285.00;;;18.70
68440;BMP180;55421;51.600;5.718;2022-07-29T08:32:40;199663.00;;;18.82
68440;BMP180;55421;51.600;5.718;2022-07-29T08:35:08;197950.20;;;19.00
68440;BMP180;55421;51.600;5.718;2022-07-29T08:37:36;199147.59;;;19.24
68440;BMP180;55421;51.600;5.718;2022-07-29T08:40:03;199324.00;;;19.50
68440;BMP180;55421;51.600;5.718;2022-07-29T08:42:30;200342.41;;;19.66
68440;BMP180;55421;51.600;5.718;2022-07-29T08:44:57;51999.00;;;19.78
68440;BMP180;55421;51.600;5.718;2022-07-29T08:47:27;5304.40;;;19.90
68440;BMP180;55421;51.600;5.718;2022-07-29T08:49:54;7006.20;;;19.90
68440;BMP180;55421;51.600;5.718;2022-07-29T08:52:24;3416.00;;;20.00
68440;BMP180;55421;51.600;5.718;2022-07-29T08:54:53;2371.00;;;20.10
68440;BMP180;55421;51.600;5.718;2022-07-29T08:57:21;4632.00;;;20.20
68440;BMP180;55421;51.600;5.718;2022-07-29T08:59:52;6274.60;;;20.40
68440;BMP180;55421;51.600;5.718;2022-07-29T09:02:22;3529.40;;;20.50
68440;BMP180;55421;51.600;5.718;2022-07-29T09:04:49;5893.60;;;20.60
68440;BMP180;55421;51.600;5.718;2022-07-29T09:07:18;6008.40;;;20.70
68440;BMP180;55421;51.600;5.718;2022-07-29T09:09:45;6848.60;;;20.70
68440;BMP180;55421;51.600;5.718;2022-07-29T09:12:12;7968.40;;;20.70
68440;BMP180;55421;51.600;5.718;2022-07-29T09:14:39;7648.80;;;20.80
68440;BMP180;55421;51.600;5.718;2022-07-29T09:17:07;7266.60;;;20.90
68440;BMP180;55421;51.600;5.718;2022-07-29T09:19:36;4732.20;;;20.90
68440;BMP180;55421;51.600;5.718;2022-07-29T09:22:06;7928.20;;;21.04
68440;BMP180;55421;51.600;5.718;2022-07-29T09:24:47;8282.60;;;21.10
68440;BMP180;55421;51.600;5.718;2022-07-29T09:27:25;8583.40;;;21.20
68440;BMP180;55421;51.600;5.718;2022-07-29T09:30:06;7206.20;;;21.30
68440;BMP180;55421;51.600;5.718;2022-07-29T09:32:55;6770.60;;;21.40
68440;BMP180;55421;51.600;5.718;2022-07-29T09:35:24;9982.40;;;21.46
68440;BMP180;55421;51.600;5.718;2022-07-29T09:37:52;7666.00;;;21.50
68440;BMP180;55421;51.600;5.718;2022-07-29T09:40:25;7625.00;;;21.60
68440;BMP180;55421;51.600;5.718;2022-07-29T09:42:52;7917.80;;;21.70
68440;BMP180;55421;51.600;5.718;2022-07-29T09:45:33;7998.60;;;21.78
68440;BMP180;55421;51.600;5.718;2022-07-29T09:48:15;9679.20;;;21.90
68440;BMP180;55421;51.600;5.718;2022-07-29T09:50:43;10213.60;;;21.90
68440;BMP180;55421;51.600;5.718;2022-07-29T09:53:11;9867.00;;;21.94
68440;BMP180;55421;51.600;5.718;2022-07-29T09:55:51;10484.20;;;22.00
68440;BMP180;55421;51.600;5.718;2022-07-29T09:58:20;12250.40;;;22.10
68440;BMP180;55421;51.600;5.718;2022-07-29T10:00:48;11835.40;;;22.20
68440;BMP180;55421;51.600;5.718;2022-07-29T10:03:16;14439.20;;;22.30
68440;BMP180;55421;51.600;5.718;2022-07-29T10:05:44;12847.20;;;22.32
68440;BMP180;55421;51.600;5.718;2022-07-29T10:08:12;12734.00;;;22.48
68440;BMP180;55421;51.600;5.718;2022-07-29T10:10:41;11758.80;;;22.60
68440;BMP180;55421;51.600;5.718;2022-07-29T10:13:12;12942.80;;;22.70
68440;BMP180;55421;51.600;5.718;2022-07-29T10:15:41;12100.60;;;22.84
68440;BMP180;55421;51.600;5.718;2022-07-29T10:18:12;11237.80;;;22.90
68440;BMP180;55421;51.600;5.718;2022-07-29T10:20:40;11471.40;;;22.90
68440;BMP180;55421;51.600;5.718;2022-07-29T10:23:08;12015.00;;;23.10
68440;BMP180;55421;51.600;5.718;2022-07-29T10:25:35;11418.80;;;23.20
68440;BMP180;55421;51.600;5.718;2022-07-29T10:28:01;12809.00;;;23.20
68440;BMP180;55421;51.600;5.718;2022-07-29T10:30:28;11896.60;;;23.30
68440;BMP180;55421;51.600;5.718;2022-07-29T10:33:27;16757.80;;;23.40
68440;BMP180;55421;51.600;5.718;2022-07-29T10:42:21;13723.00;;;23.50
68440;BMP180;55421;51.600;5.718;2022-07-29T10:44:52;16540.60;;;23.60
68440;BMP180;55421;51.600;5.718;2022-07-29T10:49:59;12364.80;;;23.80
68440;BMP180;55421;51.600;5.718;2022-07-29T10:52:52;14428.80;;;23.92
68440;BMP180;55421;51.600;5.718;2022-07-29T10:55:38;14393.60;;;24.10
68440;BMP180;55421;51.600;5.718;2022-07-29T10:58:22;16310.00;;;24.10
68440;BMP180;55421;51.600;5.718;2022-07-29T11:00:52;16044.80;;;24.10
68440;BMP180;55421;51.600;5.718;2022-07-29T11:06:07;18099.00;;;24.20
68440;BMP180;55421;51.600;5.718;2022-07-29T11:08:34;17097.80;;;24.30
68440;BMP180;55421;51.600;5.718;2022-07-29T11:13:47;18308.20;;;24.48
68440;BMP180;55421;51.600;5.718;2022-07-29T11:16:19;17488.60;;;24.60
68440;BMP180;55421;51.600;5.718;2022-07-29T11:21:41;17585.20;;;24.78
68440;BMP180;55421;51.600;5.718;2022-07-29T11:26:40;17986.40;;;25.00
68440;BMP180;55421;51.600;5.718;2022-07-29T11:29:19;18939.40;;;25.00
68440;BMP180;55421;51.600;5.718;2022-07-29T11:31:50;19934.40;;;25.00
68440;BMP180;55421;51.600;5.718;2022-07-29T11:34:31;17717.40;;;25.00
68440;BMP180;55421;51.600;5.718;2022-07-29T11:47:39;17426.60;;;25.30
68440;BMP180;55421;51.600;5.718;2022-07-29T11:50:14;19068.40;;;25.30
68440;BMP180;55421;51.600;5.718;2022-07-29T11:52:47;18029.20;;;25.22
68440;BMP180;55421;51.600;5.718;2022-07-29T11:55:21;17133.60;;;25.20
68440;BMP180;55421;51.600;5.718;2022-07-29T11:57:52;18007.60;;;25.20
68440;BMP180;55421;51.600;5.718;2022-07-29T12:00:26;17636.00;;;25.30
68440;BMP180;55421;51.600;5.718;2022-07-29T12:02:54;18881.60;;;25.30
68440;BMP180;55421;51.600;5.718;2022-07-29T12:05:40;20151.60;;;25.30
68440;BMP180;55421;51.600;5.718;2022-07-29T12:08:13;21137.20;;;25.32
68440;BMP180;55421;51.600;5.718;2022-07-29T12:10:42;21628.60;;;25.40
68440;BMP180;55421;51.600;5.718;2022-07-29T12:13:10;18805.40;;;25.40
68440;BMP180;55421;51.600;5.718;2022-07-29T12:15:37;20772.40;;;25.50
68440;BMP180;55421;51.600;5.718;2022-07-29T12:18:19;18008.20;;;25.50
68440;BMP180;55421;51.600;5.718;2022-07-29T12:20:47;19055.60;;;25.50
68440;BMP180;55421;51.600;5.718;2022-07-29T12:23:15;21525.00;;;25.50
68440;BMP180;55421;51.600;5.718;2022-07-29T12:25:44;21699.40;;;25.50
68440;BMP180;55421;51.600;5.718;2022-07-29T12:28:14;21047.60;;;25.50
68440;BMP180;55421;51.600;5.718;2022-07-29T12:30:46;21170.00;;;25.50
68440;BMP180;55421;51.600;5.718;2022-07-29T12:33:23;20605.00;;;25.50
68440;BMP180;55421;51.600;5.718;2022-07-29T12:35:54;21118.20;;;25.50
68440;BMP180;55421;51.600;5.718;2022-07-29T12:38:22;21695.40;;;25.50
68440;BMP180;55421;51.600;5.718;2022-07-29T12:40:51;21177.80;;;25.50
68440;BMP180;55421;51.600;5.718;2022-07-29T12:43:21;22059.40;;;25.50
68440;BMP180;55421;51.600;5.718;2022-07-29T12:45:52;22525.60;;;25.50
68440;BMP180;55421;51.600;5.718;2022-07-29T12:48:36;24034.20;;;25.50
68440;BMP180;55421;51.600;5.718;2022-07-29T12:51:05;21812.40;;;25.50
68440;BMP180;55421;51.600;5.718;2022-07-29T12:53:32;21883.80;;;25.50
68440;BMP180;55421;51.600;5.718;2022-07-29T12:55:59;20180.40;;;25.50
68440;BMP180;55421;51.600;5.718;2022-07-29T12:58:35;21833.80;;;25.50
68440;BMP180;55421;51.600;5.718;2022-07-29T13:01:17;21536.00;;;25.40
68440;BMP180;55421;51.600;5.718;2022-07-29T13:03:49;20652.40;;;25.40
68440;BMP180;55421;51.600;5.718;2022-07-29T13:06:44;22295.00;;;25.40
68440;BMP180;55421;51.600;5.718;2022-07-29T13:09:17;21142.40;;;25.50
68440;BMP180;55421;51.600;5.718;2022-07-29T13:11:53;23322.20;;;25.50
68440;BMP180;55421;51.600;5.718;2022-07-29T13:14:39;23111.60;;;25.50
68440;BMP180;55421;51.600;5.718;2022-07-29T13:17:12;21436.80;;;25.60
68440;BMP180;55421;51.600;5.718;2022-07-29T13:19:45;21459.80;;;25.60
68440;BMP180;55421;51.600;5.718;2022-07-29T13:22:15;22286.40;;;25.70
68440;BMP180;55421;51.600;5.718;2022-07-29T13:24:59;21433.40;;;25.70
68440;BMP180;55421;51.600;5.718;2022-07-29T13:27:30;22370.00;;;25.70
68440;BMP180;55421;51.600;5.718;2022-07-29T13:30:00;22677.00;;;25.70
68440;BMP180;55421;51.600;5.718;2022-07-29T13:32:29;22835.80;;;25.50
68440;BMP180;55421;51.600;5.718;2022-07-29T13:34:58;22033.20;;;25.40
68440;BMP180;55421;51.600;5.718;2022-07-29T13:37:26;22038.60;;;25.26
68440;BMP180;55421;51.600;5.718;2022-07-29T13:39:56;20297.80;;;25.20
68440;BMP180;55421;51.600;5.718;2022-07-29T13:42:23;21956.60;;;25.30
68440;BMP180;55421;51.600;5.718;2022-07-29T13:44:51;21751.00;;;25.40
68440;BMP180;55421;51.600;5.718;2022-07-29T13:47:21;21022.80;;;25.50
68440;BMP180;55421;51.600;5.718;2022-07-29T13:49:50;21130.20;;;25.60
68440;BMP180;55421;51.600;5.718;2022-07-29T13:52:16;20474.40;;;25.50
68440;BMP180;55421;51.600;5.718;2022-07-29T13:54:43;19820.20;;;25.40
68440;BMP180;55421;51.600;5.718;2022-07-29T13:57:11;21991.40;;;25.36
68440;BMP180;55421;51.600;5.718;2022-07-29T13:59:41;21292.60;;;25.42
68440;BMP180;55421;51.600;5.718;2022-07-29T14:02:10;21353.40;;;25.54
68440;BMP180;55421;51.600;5.718;2022-07-29T14:04:38;21497.80;;;25.58
68440;BMP180;55421;51.600;5.718;2022-07-29T14:07:06;21435.80;;;25.50
68440;BMP180;55421;51.600;5.718;2022-07-29T14:09:33;21395.80;;;25.40
68440;BMP180;55421;51.600;5.718;2022-07-29T14:11:59;21154.20;;;25.44
68440;BMP180;55421;51.600;5.718;2022-07-29T14:14:26;22413.60;;;25.40
68440;BMP180;55421;51.600;5.718;2022-07-29T14:16:52;23495.20;;;25.50
68440;BMP180;55421;51.600;5.718;2022-07-29T14:19:18;21366.80;;;25.50
68440;BMP180;55421;51.600;5.718;2022-07-29T14:21:45;23710.00;;;25.58
68440;BMP180;55421;51.600;5.718;2022-07-29T14:24:11;20560.00;;;25.54
68440;BMP180;55421;51.600;5.718;2022-07-29T14:26:38;21859.00;;;25.60
68440;BMP180;55421;51.600;5.718;2022-07-29T14:29:04;20599.00;;;25.60
68440;BMP180;55421;51.600;5.718;2022-07-29T14:31:30;20227.00;;;25.54
68440;BMP180;55421;51.600;5.718;2022-07-29T14:33:57;22961.80;;;25.46
68440;BMP180;55421;51.600;5.718;2022-07-29T14:36:23;22993.40;;;25.30
68440;BMP180;55421;51.600;5.718;2022-07-29T14:38:50;21436.60;;;25.20
68440;BMP180;55421;51.600;5.718;2022-07-29T14:41:16;21709.20;;;25.10
68440;BMP180;55421;51.600;5.718;2022-07-29T14:43:43;23597.40;;;25.10
68440;BMP180;55421;51.600;5.718;2022-07-29T14:46:09;22580.60;;;25.10
68440;BMP180;55421;51.600;5.718;2022-07-29T14:48:36;20411.60;;;25.10
68440;BMP180;55421;51.600;5.718;2022-07-29T14:51:02;21220.00;;;25.10
68440;BMP180;55421;51.600;5.718;2022-07-29T14:53:29;22256.00;;;25.10
68440;BMP180;55421;51.600;5.718;2022-07-29T14:55:55;22060.20;;;25.20
68440;BMP180;55421;51.600;5.718;2022-07-29T14:58:21;22696.20;;;25.20
68440;BMP180;55421;51.600;5.718;2022-07-29T15:00:48;21880.20;;;25.10